Welcome to Northern Hawkes Bay. New Zealand.
PWS Header
      nz Flag



Hit Counter


W3C Valid W3C Valid logo


    Wairoa

Select any of the Stations below to visit their websites.










Historic Data from Weather Underground
Select the location of interest below. Wairoa is the default. Please have patience, this Data is slow to load in.
Northern Hawkes Bay Historical Data
 
Daily Summary for April 21, 2019 Units:  Metric    English   Both
« Previous Day
Next Day »
Daily Weekly Monthly Yearly Custom
  Current: High: Low: Average:
Temperature: 21.0 °C 23.4 °C 8.3 °C 13.4 °C
Dew Point: 12.4 °C 12.6 °C 6.7 °C 9.5 °C
Humidity: 58% 99% 38% 82%
Wind Speed: 9.7km/h 13.4km/h 0.0km/h 4.9km/h
Wind Gust: 14.8km/h 21.9km/h - -
WindNNW - - WSW
Pressure: 1022.9 hPa 1025.3 hPa 1022.7 hPa -
Precipitation: 0.0 mm      
Historical Graphs
 
 
Tabular Data for April 21, 2019
Time Temperature Dew Point Pressure Wind Wind Speed Wind Gust Humidity Rainfall Rate (Hourly) solar
00:04 10.5 °C 10.1 °C 1025.3 hPa NW 2.6 km/h 6.1 km/h 97% 0.0 mm 0.00 W/m2
00:09 10.4 °C 9.9 °C 1025.3 hPa NW 3.5 km/h 6.1 km/h 97% 0.0 mm 0.00 W/m2
00:14 10.4 °C 9.9 °C 1025.3 hPa NW 5.0 km/h 7.2 km/h 97% 0.0 mm 0.00 W/m2
00:19 10.3 °C 10.0 °C 1025.3 hPa NW 5.0 km/h 8.7 km/h 98% 0.0 mm 0.00 W/m2
00:24 10.3 °C 10.0 °C 1025.3 hPa NW 6.1 km/h 8.7 km/h 98% 0.0 mm 0.00 W/m2
00:29 10.0 °C 9.7 °C 1025.2 hPa NW 5.0 km/h 8.7 km/h 98% 0.0 mm 0.00 W/m2
00:34 10.2 °C 9.9 °C 1025.1 hPa NW 5.0 km/h 8.7 km/h 98% 0.0 mm 0.00 W/m2
00:39 10.2 °C 10.1 °C 1025.1 hPa NW 6.1 km/h 8.7 km/h 99% 0.0 mm 0.00 W/m2
00:44 10.2 °C 10.1 °C 1025.2 hPa NW 5.0 km/h 7.2 km/h 99% 0.0 mm 0.00 W/m2
00:49 9.9 °C 9.8 °C 1025.2 hPa NW 3.5 km/h 8.7 km/h 99% 0.0 mm 0.00 W/m2
00:54 10.2 °C 10.1 °C 1025.1 hPa NW 5.0 km/h 8.7 km/h 99% 0.0 mm 0.00 W/m2
00:59 10.1 °C 9.9 °C 1025.2 hPa NW 5.0 km/h 7.2 km/h 99% 0.0 mm 0.00 W/m2
01:04 10.0 °C 9.8 °C 1025.1 hPa NW 6.1 km/h 9.7 km/h 99% 0.0 mm 0.00 W/m2
01:09 9.6 °C 9.4 °C 1025.1 hPa NNW 5.0 km/h 9.7 km/h 99% 0.0 mm 0.00 W/m2
01:14 10.1 °C 9.9 °C 1025.2 hPa NW 6.1 km/h 8.7 km/h 99% 0.0 mm 0.00 W/m2
01:19 9.9 °C 9.8 °C 1025.2 hPa NW 3.5 km/h 8.7 km/h 99% 0.0 mm 0.00 W/m2
01:24 9.9 °C 9.8 °C 1025.1 hPa NW 3.5 km/h 8.7 km/h 99% 0.0 mm 0.00 W/m2
01:29 9.6 °C 9.4 °C 1025.1 hPa NW 2.6 km/h 8.7 km/h 99% 0.0 mm 0.00 W/m2
01:34 9.8 °C 9.7 °C 1025.2 hPa Calm   7.2 km/h 99% 0.0 mm 0.00 W/m2
01:39 9.6 °C 9.4 °C 1025.2 hPa Calm   5.0 km/h 99% 0.0 mm 0.00 W/m2
01:44 9.5 °C 9.3 °C 1025.1 hPa Calm   1.1 km/h 99% 0.0 mm 0.00 W/m2
01:49 9.1 °C 8.9 °C 1025.2 hPa NNW 1.1 km/h 2.6 km/h 99% 0.0 mm 0.00 W/m2
01:54 9.5 °C 9.3 °C 1025.0 hPa NNW 1.1 km/h 3.5 km/h 99% 0.0 mm 0.00 W/m2
01:59 9.5 °C 9.3 °C 1025.1 hPa North 1.1 km/h 3.5 km/h 99% 0.0 mm 0.00 W/m2
02:04 9.4 °C 9.3 °C 1025.0 hPa NNW 2.6 km/h 5.0 km/h 99% 0.0 mm 0.00 W/m2
02:09 9.4 °C 9.3 °C 1025.0 hPa Calm   5.0 km/h 99% 0.0 mm 0.00 W/m2
02:14 9.3 °C 9.2 °C 1025.0 hPa NNW 2.6 km/h 5.0 km/h 99% 0.0 mm 0.00 W/m2
02:19 9.3 °C 9.2 °C 1024.9 hPa NNW 1.1 km/h 5.0 km/h 99% 0.0 mm 0.00 W/m2
02:24 9.3 °C 9.2 °C 1024.8 hPa North 2.6 km/h 5.0 km/h 99% 0.0 mm 0.00 W/m2
02:29 9.3 °C 9.2 °C 1024.8 hPa North 2.6 km/h 5.0 km/h 99% 0.0 mm 0.00 W/m2
02:34 9.1 °C 8.9 °C 1024.7 hPa NNW 2.6 km/h 6.1 km/h 99% 0.0 mm 0.00 W/m2
02:39 9.1 °C 8.9 °C 1024.6 hPa NNW 2.6 km/h 6.1 km/h 99% 0.0 mm 0.00 W/m2
02:44 9.1 °C 8.9 °C 1024.5 hPa NNW 2.6 km/h 6.1 km/h 99% 0.0 mm 0.00 W/m2
02:49 9.0 °C 8.8 °C 1024.6 hPa Calm   5.0 km/h 99% 0.0 mm 0.00 W/m2
02:54 9.0 °C 8.8 °C 1024.4 hPa Calm   3.5 km/h 99% 0.0 mm 0.00 W/m2
02:59 8.9 °C 8.8 °C 1024.6 hPa North 2.6 km/h 5.0 km/h 99% 0.0 mm 0.00 W/m2
03:04 8.8 °C 8.7 °C 1024.4 hPa North 2.6 km/h 5.0 km/h 99% 0.0 mm 0.00 W/m2
03:09 8.7 °C 8.6 °C 1024.2 hPa North 2.6 km/h 5.0 km/h 99% 0.0 mm 0.00 W/m2
03:14 8.5 °C 8.3 °C 1024.4 hPa North 1.1 km/h 5.0 km/h 99% 0.0 mm 0.00 W/m2
03:19 8.5 °C 8.3 °C 1024.3 hPa NNW 3.5 km/h 5.0 km/h 99% 0.0 mm 0.00 W/m2
03:24 8.5 °C 8.3 °C 1024.3 hPa NNW 2.6 km/h 5.0 km/h 99% 0.0 mm 0.00 W/m2
03:29 8.4 °C 8.3 °C 1024.2 hPa NNE 2.6 km/h 5.0 km/h 99% 0.0 mm 0.00 W/m2
03:34 8.3 °C 8.2 °C 1024.2 hPa NNE 2.6 km/h 3.5 km/h 99% 0.0 mm 0.00 W/m2
03:39 8.3 °C 8.2 °C 1024.1 hPa North 2.6 km/h 5.0 km/h 99% 0.0 mm 0.00 W/m2
03:44 8.4 °C 8.3 °C 1024.0 hPa North 2.6 km/h 6.1 km/h 99% 0.0 mm 0.00 W/m2
03:49 8.3 °C 8.2 °C 1024.0 hPa North 1.1 km/h 6.1 km/h 99% 0.0 mm 0.00 W/m2
03:54 8.3 °C 8.2 °C 1023.9 hPa NNW 5.0 km/h 6.1 km/h 99% 0.0 mm 0.00 W/m2
03:59 8.4 °C 8.3 °C 1023.7 hPa NW 3.5 km/h 7.2 km/h 99% 0.0 mm 0.00 W/m2
04:04 8.4 °C 8.3 °C 1023.8 hPa NNW 2.6 km/h 7.2 km/h 99% 0.0 mm 0.00 W/m2
04:09 8.4 °C 8.3 °C 1023.7 hPa NNW 2.6 km/h 6.1 km/h 99% 0.0 mm 0.00 W/m2
04:14 8.4 °C 8.3 °C 1023.7 hPa NW 6.1 km/h 7.2 km/h 99% 0.0 mm 0.00 W/m2
04:19 8.5 °C 8.3 °C 1023.7 hPa NW 2.6 km/h 7.2 km/h 99% 0.0 mm 0.00 W/m2
04:24 8.5 °C 8.3 °C 1023.7 hPa NW 2.6 km/h 7.2 km/h 99% 0.0 mm 0.00 W/m2
04:29 8.5 °C 8.3 °C 1023.7 hPa NW 5.0 km/h 7.2 km/h 99% 0.0 mm 0.00 W/m2
04:34 8.5 °C 8.3 °C 1023.8 hPa NW 5.0 km/h 7.2 km/h 99% 0.0 mm 0.00 W/m2
04:39 8.7 °C 8.6 °C 1023.7 hPa NW 5.0 km/h 7.2 km/h 99% 0.0 mm 0.00 W/m2
04:44 8.7 °C 8.6 °C 1023.6 hPa NW 3.5 km/h 8.7 km/h 99% 0.0 mm 0.00 W/m2
04:49 8.7 °C 8.6 °C 1023.8 hPa NW 3.5 km/h 8.7 km/h 99% 0.0 mm 0.00 W/m2
04:54 8.5 °C 8.3 °C 1023.8 hPa NW 5.0 km/h 8.7 km/h 99% 0.0 mm 0.00 W/m2
04:59 8.7 °C 8.6 °C 1023.8 hPa NW 2.6 km/h 8.7 km/h 99% 0.0 mm 0.00 W/m2
05:04 8.7 °C 8.6 °C 1023.9 hPa NW 5.0 km/h 8.7 km/h 99% 0.0 mm 0.00 W/m2
05:09 8.7 °C 8.6 °C 1023.9 hPa WNW 5.0 km/h 9.7 km/h 99% 0.0 mm 0.00 W/m2
05:14 8.9 °C 8.8 °C 1023.8 hPa WNW 5.0 km/h 9.7 km/h 99% 0.0 mm 0.00 W/m2
05:19 8.9 °C 8.8 °C 1023.7 hPa NW 5.0 km/h 8.7 km/h 99% 0.0 mm 0.00 W/m2
05:24 8.9 °C 8.8 °C 1023.9 hPa NW 2.6 km/h 8.7 km/h 99% 0.0 mm 0.00 W/m2
05:29 8.9 °C 8.8 °C 1023.7 hPa NNW 5.0 km/h 7.2 km/h 99% 0.0 mm 0.00 W/m2
05:34 8.9 °C 8.8 °C 1023.7 hPa NW 5.0 km/h 8.7 km/h 99% 0.0 mm 0.00 W/m2
05:39 8.9 °C 8.8 °C 1023.8 hPa NW 5.0 km/h 9.7 km/h 99% 0.0 mm 0.00 W/m2
05:44 8.8 °C 8.7 °C 1023.8 hPa NW 6.1 km/h 9.7 km/h 99% 0.0 mm 0.00 W/m2
05:49 8.7 °C 8.6 °C 1023.7 hPa NW 6.1 km/h 9.7 km/h 99% 0.0 mm 0.00 W/m2
05:54 8.8 °C 8.7 °C 1023.8 hPa NW 7.2 km/h 11.1 km/h 99% 0.0 mm 0.00 W/m2
05:59 8.9 °C 8.8 °C 1023.7 hPa NW 6.1 km/h 12.2 km/h 99% 0.0 mm 0.00 W/m2
06:04 9.0 °C 8.8 °C 1023.7 hPa NNW 6.1 km/h 12.2 km/h 99% 0.0 mm 0.00 W/m2
06:09 9.0 °C 8.8 °C 1023.8 hPa Calm   9.7 km/h 99% 0.0 mm 0.00 W/m2
06:14 9.0 °C 8.8 °C 1024.1 hPa NNW 1.1 km/h 8.7 km/h 99% 0.0 mm 0.00 W/m2
06:19 8.9 °C 8.8 °C 1024.0 hPa Calm   7.2 km/h 99% 0.0 mm 0.00 W/m2
06:24 8.9 °C 8.8 °C 1023.8 hPa Calm   7.2 km/h 99% 0.0 mm 0.00 W/m2
06:29 8.9 °C 8.8 °C 1023.9 hPa NNW 5.0 km/h 6.1 km/h 99% 0.0 mm 0.00 W/m2
06:34 8.9 °C 8.8 °C 1023.9 hPa NW 1.1 km/h 7.2 km/h 99% 0.0 mm 0.00 W/m2
06:39 9.0 °C 8.8 °C 1023.9 hPa NW 5.0 km/h 7.2 km/h 99% 0.0 mm 0.00 W/m2
06:44 9.0 °C 8.8 °C 1024.0 hPa NW 6.1 km/h 8.7 km/h 99% 0.0 mm 1.00 W/m2
06:49 9.0 °C 8.8 °C 1023.9 hPa NW 6.1 km/h 11.1 km/h 99% 0.0 mm 2.00 W/m2
06:54 8.9 °C 8.8 °C 1024.0 hPa NW 2.6 km/h 11.1 km/h 99% 0.0 mm 4.00 W/m2
06:59 8.9 °C 8.8 °C 1024.1 hPa NNW 3.5 km/h 7.2 km/h 99% 0.0 mm 6.00 W/m2
07:04 8.9 °C 8.8 °C 1023.9 hPa NNW 6.1 km/h 9.7 km/h 99% 0.0 mm 9.00 W/m2
07:09 9.0 °C 8.8 °C 1024.1 hPa NNW 7.2 km/h 9.7 km/h 99% 0.0 mm 16.00 W/m2
07:14 9.1 °C 8.9 °C 1024.0 hPa NNW 2.6 km/h 9.7 km/h 99% 0.0 mm 25.00 W/m2
07:19 9.2 °C 9.1 °C 1024.3 hPa NW 5.0 km/h 9.7 km/h 99% 0.0 mm 53.00 W/m2
07:24 9.4 °C 9.3 °C 1024.0 hPa NW 5.0 km/h 9.7 km/h 99% 0.0 mm 38.00 W/m2
07:29 9.5 °C 9.3 °C 1024.2 hPa NNW 3.5 km/h 9.7 km/h 99% 0.0 mm 42.00 W/m2
07:34 9.6 °C 9.4 °C 1024.2 hPa NNW 5.0 km/h 7.2 km/h 99% 0.0 mm 46.00 W/m2
07:39 9.7 °C 9.6 °C 1024.3 hPa NNW 1.1 km/h 7.2 km/h 99% 0.0 mm 43.00 W/m2
07:44 9.7 °C 9.6 °C 1024.3 hPa NNW 5.0 km/h 7.2 km/h 99% 0.0 mm 45.00 W/m2
07:49 9.9 °C 9.8 °C 1024.4 hPa NW 6.1 km/h 8.7 km/h 99% 0.0 mm 49.00 W/m2
07:54 9.9 °C 9.8 °C 1024.5 hPa NNW 3.5 km/h 8.7 km/h 99% 0.0 mm 49.00 W/m2
07:59 10.0 °C 9.8 °C 1024.4 hPa NNW 7.2 km/h 9.7 km/h 99% 0.0 mm 50.00 W/m2
08:04 10.1 °C 9.9 °C 1024.5 hPa NNW 5.0 km/h 9.7 km/h 99% 0.0 mm 51.00 W/m2
08:09 10.0 °C 9.8 °C 1024.5 hPa NNW 6.1 km/h 11.1 km/h 99% 0.0 mm 54.00 W/m2
08:14 10.0 °C 9.8 °C 1024.3 hPa NNW 7.2 km/h 11.1 km/h 99% 0.0 mm 53.00 W/m2
08:19 10.1 °C 9.9 °C 1024.4 hPa NW 8.7 km/h 11.1 km/h 99% 0.0 mm 52.00 W/m2
08:24 10.1 °C 9.9 °C 1024.4 hPa NW 6.1 km/h 11.1 km/h 99% 0.0 mm 81.00 W/m2
08:29 10.3 °C 10.2 °C 1024.5 hPa NNW 5.0 km/h 11.1 km/h 99% 0.0 mm 115.00 W/m2
08:34 10.8 °C 10.7 °C 1024.3 hPa NNW 7.2 km/h 12.2 km/h 99% 0.0 mm 254.00 W/m2
08:39 11.4 °C 11.1 °C 1024.5 hPa NW 8.7 km/h 14.8 km/h 98% 0.0 mm 271.00 W/m2
08:44 12.1 °C 11.3 °C 1024.5 hPa NW 5.0 km/h 14.8 km/h 95% 0.0 mm 295.00 W/m2
08:49 13.4 °C 12.1 °C 1024.4 hPa NNW 3.5 km/h 14.8 km/h 92% 0.0 mm 304.00 W/m2
08:54 14.2 °C 12.2 °C 1024.4 hPa NNW 6.1 km/h 9.7 km/h 88% 0.0 mm 308.00 W/m2
08:59 15.0 °C 12.3 °C 1024.4 hPa NNW 3.5 km/h 11.1 km/h 84% 0.0 mm 311.00 W/m2
09:04 15.8 °C 12.6 °C 1024.5 hPa North 3.5 km/h 11.1 km/h 81% 0.0 mm 317.00 W/m2
09:09 16.2 °C 11.8 °C 1024.4 hPa North 6.1 km/h 14.8 km/h 75% 0.0 mm 323.00 W/m2
09:14 16.5 °C 11.8 °C 1024.7 hPa North 8.7 km/h 14.8 km/h 74% 0.0 mm 333.00 W/m2
09:19 16.5 °C 11.7 °C 1024.6 hPa NNW 9.7 km/h 13.4 km/h 73% 0.0 mm 338.00 W/m2
09:24 16.6 °C 11.6 °C 1024.5 hPa North 8.7 km/h 14.8 km/h 72% 0.0 mm 340.00 W/m2
09:25 16.7 °C 11.6 °C 1024.7 hPa North 8.7 km/h 14.8 km/h 72% 0.0 mm 339.00 W/m2
09:44 17.7 °C 11.7 °C 1024.6 hPa North 6.1 km/h 15.8 km/h 68% 0.0 mm 86.00 W/m2
09:49 18.0 °C 12.0 °C 1024.6 hPa NNW 6.1 km/h 11.1 km/h 68% 0.0 mm 76.00 W/m2
09:54 18.0 °C 11.8 °C 1024.6 hPa NW 5.0 km/h 12.2 km/h 67% 0.0 mm 68.00 W/m2
09:59 18.6 °C 12.1 °C 1024.5 hPa NNW 5.0 km/h 12.2 km/h 66% 0.0 mm 65.00 W/m2
10:04 19.1 °C 11.9 °C 1024.5 hPa North 6.1 km/h 12.2 km/h 63% 0.0 mm 63.00 W/m2
10:09 19.2 °C 11.8 °C 1024.5 hPa North 8.7 km/h 13.4 km/h 62% 0.0 mm 62.00 W/m2
10:14 19.2 °C 11.3 °C 1024.6 hPa North 11.1 km/h 20.9 km/h 60% 0.0 mm 63.00 W/m2
10:19 19.3 °C 11.1 °C 1024.7 hPa NNE 8.7 km/h 20.9 km/h 59% 0.0 mm 62.00 W/m2
10:24 19.5 °C 11.1 °C 1024.5 hPa North 13.4 km/h 19.5 km/h 58% 0.0 mm 66.00 W/m2
10:29 19.3 °C 10.3 °C 1024.5 hPa North 11.1 km/h 21.9 km/h 56% 0.0 mm 99.00 W/m2
10:34 19.4 °C 10.7 °C 1024.6 hPa North 8.7 km/h 21.9 km/h 57% 0.0 mm 258.00 W/m2
10:39 19.4 °C 10.1 °C 1024.6 hPa North 11.1 km/h 18.3 km/h 55% 0.0 mm 329.00 W/m2
10:44 19.6 °C 10.6 °C 1024.6 hPa NNE 6.1 km/h 18.3 km/h 56% 0.0 mm 356.00 W/m2
10:49 19.9 °C 10.9 °C 1024.6 hPa North 7.2 km/h 17.2 km/h 56% 0.0 mm 196.00 W/m2
10:54 20.2 °C 10.3 °C 1024.6 hPa North 9.7 km/h 15.8 km/h 53% 0.0 mm 374.00 W/m2
10:59 20.2 °C 10.1 °C 1024.7 hPa NNW 8.7 km/h 17.2 km/h 52% 0.0 mm 305.00 W/m2
11:04 20.3 °C 9.8 °C 1024.5 hPa North 7.2 km/h 19.5 km/h 51% 0.0 mm 385.00 W/m2
11:09 20.2 °C 9.8 °C 1024.5 hPa NNE 13.4 km/h 19.5 km/h 51% 0.0 mm 392.00 W/m2
11:14 20.3 °C 9.6 °C 1024.5 hPa NNE 8.7 km/h 18.3 km/h 50% 0.0 mm 395.00 W/m2
11:19 20.2 °C 9.2 °C 1024.5 hPa NNE 13.4 km/h 18.3 km/h 49% 0.0 mm 396.00 W/m2
11:24 20.4 °C 9.1 °C 1024.4 hPa NNE 12.2 km/h 17.2 km/h 48% 0.0 mm 400.00 W/m2
11:29 20.4 °C 9.1 °C 1024.3 hPa NNE 7.2 km/h 17.2 km/h 48% 0.0 mm 402.00 W/m2
11:34 20.9 °C 9.5 °C 1024.3 hPa NNE 6.1 km/h 14.8 km/h 48% 0.0 mm 409.00 W/m2
11:39 21.3 °C 8.9 °C 1024.2 hPa NNE 5.0 km/h 12.2 km/h 45% 0.0 mm 419.00 W/m2
11:44 21.3 °C 8.6 °C 1024.4 hPa NNE 7.2 km/h 14.8 km/h 44% 0.0 mm 434.00 W/m2
11:49 21.4 °C 8.7 °C 1024.3 hPa North 8.7 km/h 14.8 km/h 44% 0.0 mm 399.00 W/m2
11:54 21.6 °C 9.5 °C 1024.0 hPa North 7.2 km/h 14.8 km/h 46% 0.0 mm 356.00 W/m2
11:59 21.4 °C 9.0 °C 1024.1 hPa North 3.5 km/h 14.8 km/h 45% 0.0 mm 194.00 W/m2
12:04 21.0 °C 8.9 °C 1023.9 hPa North 5.0 km/h 12.2 km/h 46% 0.0 mm 185.00 W/m2
12:09 20.9 °C 10.1 °C 1023.8 hPa North 3.5 km/h 9.7 km/h 50% 0.0 mm 265.00 W/m2
12:14 21.2 °C 10.1 °C 1023.7 hPa NE 3.5 km/h 12.2 km/h 49% 0.0 mm 324.00 W/m2
12:19 21.7 °C 9.6 °C 1023.7 hPa NE 2.6 km/h 12.2 km/h 46% 0.0 mm 267.00 W/m2
12:20 21.7 °C 9.9 °C 1023.7 hPa NNE 3.5 km/h 12.2 km/h 47% 0.0 mm 275.00 W/m2
12:39 21.7 °C 9.6 °C 1023.4 hPa NNE 5.0 km/h 12.2 km/h 46% 0.0 mm 346.00 W/m2
12:44 21.8 °C 10.0 °C 1023.2 hPa NNW 2.6 km/h 12.2 km/h 47% 0.0 mm 318.00 W/m2
12:49 22.7 °C 10.5 °C 1023.0 hPa NNW 3.5 km/h 12.2 km/h 46% 0.0 mm 467.00 W/m2
12:54 23.1 °C 10.6 °C 1023.0 hPa NNE 7.2 km/h 12.2 km/h 45% 0.0 mm 432.00 W/m2
12:59 23.1 °C 10.6 °C 1022.9 hPa NE 7.2 km/h 14.8 km/h 45% 0.0 mm 390.00 W/m2
13:04 23.1 °C 9.2 °C 1023.1 hPa NNE 5.0 km/h 14.8 km/h 41% 0.0 mm 411.00 W/m2
13:09 23.2 °C 9.2 °C 1023.0 hPa North 5.0 km/h 14.8 km/h 41% 0.0 mm 343.00 W/m2
13:14 22.9 °C 8.9 °C 1023.0 hPa NNW 7.2 km/h 12.2 km/h 41% 0.0 mm 385.00 W/m2
13:19 23.1 °C 9.2 °C 1023.0 hPa NNW 7.2 km/h 12.2 km/h 41% 0.0 mm 298.00 W/m2
13:21 23.4 °C 9.1 °C 1022.9 hPa NW 5.0 km/h 12.2 km/h 40% 0.0 mm 297.00 W/m2
13:39 22.1 °C 7.5 °C 1022.9 hPa NNW 6.1 km/h 14.8 km/h 39% 0.0 mm 85.00 W/m2
13:44 21.6 °C 6.7 °C 1022.8 hPa North 5.0 km/h 14.8 km/h 38% 0.0 mm 119.00 W/m2
13:49 21.6 °C 6.7 °C 1022.8 hPa NNE 6.1 km/h 11.1 km/h 38% 0.0 mm 137.00 W/m2
13:54 21.7 °C 7.5 °C 1022.9 hPa NE 1.1 km/h 9.7 km/h 40% 0.0 mm 119.00 W/m2
13:59 22.0 °C 7.8 °C 1022.8 hPa ENE 6.1 km/h 9.7 km/h 40% 0.0 mm 117.00 W/m2
14:04 21.9 °C 8.1 °C 1022.7 hPa ENE 6.1 km/h 9.7 km/h 41% 0.0 mm 152.00 W/m2
14:09 22.0 °C 7.4 °C 1022.8 hPa Calm   9.7 km/h 39% 0.0 mm 129.00 W/m2
14:14 22.8 °C 8.9 °C 1023.0 hPa ENE 2.6 km/h 9.7 km/h 41% 0.0 mm 127.00 W/m2
14:19 23.1 °C 8.4 °C 1022.7 hPa ENE 1.1 km/h 6.1 km/h 39% 0.0 mm 130.00 W/m2
14:24 22.4 °C 11.2 °C 1022.8 hPa SSW 9.7 km/h 12.2 km/h 49% 0.0 mm 140.00 W/m2
14:29 21.0 °C 12.4 °C 1022.9 hPa NNW 9.7 km/h 14.8 km/h 58% 0.0 mm 142.00 W/m2
Northern Hawkes Bay. New Zealand Historic Data
Compliments of Weather Underground - 1.5 mb